sensor_id;sensor_type;location;lat;lon;timestamp;temperature;humidity
76211;DHT22;65003;49.518;11.280;2023-02-19T00:01:09;10.30;88.30
76211;DHT22;65003;49.518;11.280;2023-02-19T00:03:35;10.30;88.30
76211;DHT22;65003;49.518;11.280;2023-02-19T00:06:01;10.40;88.10
76211;DHT22;65003;49.518;11.280;2023-02-19T00:08:30;10.40;88.20
76211;DHT22;65003;49.518;11.280;2023-02-19T00:11:12;10.30;88.20
76211;DHT22;65003;49.518;11.280;2023-02-19T00:13:38;10.30;88.60
76211;DHT22;65003;49.518;11.280;2023-02-19T00:16:14;10.30;88.80
76211;DHT22;65003;49.518;11.280;2023-02-19T00:18:41;10.30;89.10
76211;DHT22;65003;49.518;11.280;2023-02-19T00:21:08;10.20;89.40
76211;DHT22;65003;49.518;11.280;2023-02-19T00:23:34;10.20;89.50
76211;DHT22;65003;49.518;11.280;2023-02-19T00:26:03;10.30;89.40
76211;DHT22;65003;49.518;11.280;2023-02-19T00:28:28;10.20;89.60
76211;DHT22;65003;49.518;11.280;2023-02-19T00:30:55;10.20;90.10
76211;DHT22;65003;49.518;11.280;2023-02-19T00:33:22;10.20;90.00
76211;DHT22;65003;49.518;11.280;2023-02-19T00:35:48;10.10;90.10
76211;DHT22;65003;49.518;11.280;2023-02-19T00:38:15;10.10;90.20
76211;DHT22;65003;49.518;11.280;2023-02-19T00:40:41;10.10;90.30
76211;DHT22;65003;49.518;11.280;2023-02-19T00:43:08;10.00;90.30
76211;DHT22;65003;49.518;11.280;2023-02-19T00:45:35;10.00;90.30
76211;DHT22;65003;49.518;11.280;2023-02-19T00:48:01;10.10;90.30
76211;DHT22;65003;49.518;11.280;2023-02-19T00:50:28;10.00;90.40
76211;DHT22;65003;49.518;11.280;2023-02-19T00:52:54;9.90;90.50
76211;DHT22;65003;49.518;11.280;2023-02-19T00:55:21;9.90;90.50
76211;DHT22;65003;49.518;11.280;2023-02-19T00:57:48;10.00;90.60
76211;DHT22;65003;49.518;11.280;2023-02-19T01:00:14;10.00;90.50
76211;DHT22;65003;49.518;11.280;2023-02-19T01:02:41;9.90;90.90
76211;DHT22;65003;49.518;11.280;2023-02-19T01:05:07;9.90;91.20
76211;DHT22;65003;49.518;11.280;2023-02-19T01:07:35;9.90;91.80
76211;DHT22;65003;49.518;11.280;2023-02-19T01:10:01;9.90;91.80
76211;DHT22;65003;49.518;11.280;2023-02-19T01:12:27;9.90;92.10
76211;DHT22;65003;49.518;11.280;2023-02-19T01:14:54;9.90;92.40
76211;DHT22;65003;49.518;11.280;2023-02-19T01:17:20;9.80;92.70
76211;DHT22;65003;49.518;11.280;2023-02-19T01:19:47;9.70;93.00
76211;DHT22;65003;49.518;11.280;2023-02-19T01:22:14;9.70;93.30
76211;DHT22;65003;49.518;11.280;2023-02-19T01:24:40;9.60;93.50
76211;DHT22;65003;49.518;11.280;2023-02-19T01:27:08;9.60;93.60
76211;DHT22;65003;49.518;11.280;2023-02-19T01:29:34;9.70;93.50
76211;DHT22;65003;49.518;11.280;2023-02-19T01:32:01;9.70;93.50
76211;DHT22;65003;49.518;11.280;2023-02-19T01:34:27;9.60;93.50
76211;DHT22;65003;49.518;11.280;2023-02-19T01:36:54;9.60;93.80
76211;DHT22;65003;49.518;11.280;2023-02-19T01:39:20;9.50;93.80
76211;DHT22;65003;49.518;11.280;2023-02-19T01:41:47;9.50;93.90
76211;DHT22;65003;49.518;11.280;2023-02-19T01:47:10;9.40;94.10
76211;DHT22;65003;49.518;11.280;2023-02-19T01:49:39;9.40;94.20
76211;DHT22;65003;49.518;11.280;2023-02-19T01:52:08;9.30;94.30
76211;DHT22;65003;49.518;11.280;2023-02-19T01:54:33;9.40;94.40
76211;DHT22;65003;49.518;11.280;2023-02-19T01:56:59;9.40;94.30
76211;DHT22;65003;49.518;11.280;2023-02-19T01:59:25;9.30;94.50
76211;DHT22;65003;49.518;11.280;2023-02-19T02:01:52;9.30;94.40
76211;DHT22;65003;49.518;11.280;2023-02-19T02:04:18;9.40;94.20
76211;DHT22;65003;49.518;11.280;2023-02-19T02:06:47;9.40;94.20
76211;DHT22;65003;49.518;11.280;2023-02-19T02:09:12;8.20;94.00
76211;DHT22;65003;49.518;11.280;2023-02-19T02:11:49;9.30;94.40
76211;DHT22;65003;49.518;11.280;2023-02-19T02:14:15;9.30;94.40
76211;DHT22;65003;49.518;11.280;2023-02-19T02:17:00;9.30;94.30
76211;DHT22;65003;49.518;11.280;2023-02-19T02:19:51;9.30;94.30
76211;DHT22;65003;49.518;11.280;2023-02-19T02:23:02;9.30;94.30
76211;DHT22;65003;49.518;11.280;2023-02-19T02:25:17;9.30;94.50
76211;DHT22;65003;49.518;11.280;2023-02-19T02:30:31;9.30;94.40
76211;DHT22;65003;49.518;11.280;2023-02-19T02:35:38;9.30;94.30
76211;DHT22;65003;49.518;11.280;2023-02-19T02:38:01;9.20;94.30
76211;DHT22;65003;49.518;11.280;2023-02-19T02:40:27;9.20;94.50
76211;DHT22;65003;49.518;11.280;2023-02-19T02:42:55;9.20;94.60
76211;DHT22;65003;49.518;11.280;2023-02-19T02:45:23;9.20;94.50
76211;DHT22;65003;49.518;11.280;2023-02-19T02:47:54;9.20;94.60
76211;DHT22;65003;49.518;11.280;2023-02-19T02:50:25;9.20;94.70
76211;DHT22;65003;49.518;11.280;2023-02-19T02:52:52;9.20;94.90
76211;DHT22;65003;49.518;11.280;2023-02-19T02:55:23;9.20;94.70
76211;DHT22;65003;49.518;11.280;2023-02-19T02:57:50;9.20;94.80
76211;DHT22;65003;49.518;11.280;2023-02-19T03:00:16;9.20;94.80
76211;DHT22;65003;49.518;11.280;2023-02-19T03:02:43;9.20;94.80
76211;DHT22;65003;49.518;11.280;2023-02-19T03:05:14;9.10;94.90
76211;DHT22;65003;49.518;11.280;2023-02-19T03:07:56;9.10;95.00
76211;DHT22;65003;49.518;11.280;2023-02-19T03:10:24;9.20;94.70
76211;DHT22;65003;49.518;11.280;2023-02-19T03:12:49;9.10;94.80
76211;DHT22;65003;49.518;11.280;2023-02-19T03:15:22;9.00;95.00
76211;DHT22;65003;49.518;11.280;2023-02-19T03:17:55;9.00;95.20
76211;DHT22;65003;49.518;11.280;2023-02-19T03:20:26;9.00;95.10
76211;DHT22;65003;49.518;11.280;2023-02-19T03:22:53;9.00;95.10
76211;DHT22;65003;49.518;11.280;2023-02-19T03:25:22;9.00;94.90
76211;DHT22;65003;49.518;11.280;2023-02-19T03:27:53;9.10;94.70
76211;DHT22;65003;49.518;11.280;2023-02-19T03:30:21;9.20;94.50
76211;DHT22;65003;49.518;11.280;2023-02-19T03:32:48;9.10;94.50
76211;DHT22;65003;49.518;11.280;2023-02-19T03:35:18;9.10;94.70
76211;DHT22;65003;49.518;11.280;2023-02-19T03:37:46;9.10;94.70
76211;DHT22;65003;49.518;11.280;2023-02-19T03:40:11;9.10;94.60
76211;DHT22;65003;49.518;11.280;2023-02-19T03:42:44;9.10;94.50
76211;DHT22;65003;49.518;11.280;2023-02-19T03:45:14;9.20;94.20
76211;DHT22;65003;49.518;11.280;2023-02-19T03:47:55;9.20;94.20
76211;DHT22;65003;49.518;11.280;2023-02-19T03:50:29;9.20;94.00
76211;DHT22;65003;49.518;11.280;2023-02-19T03:53:11;9.20;94.10
76211;DHT22;65003;49.518;11.280;2023-02-19T03:58:23;9.20;93.60
76211;DHT22;65003;49.518;11.280;2023-02-19T04:00:52;9.20;93.90
76211;DHT22;65003;49.518;11.280;2023-02-19T04:03:37;9.10;94.20
76211;DHT22;65003;49.518;11.280;2023-02-19T04:06:02;9.10;94.10
76211;DHT22;65003;49.518;11.280;2023-02-19T04:08:28;9.10;94.10
76211;DHT22;65003;49.518;11.280;2023-02-19T04:10:54;9.10;94.10
76211;DHT22;65003;49.518;11.280;2023-02-19T04:13:29;9.10;94.00
76211;DHT22;65003;49.518;11.280;2023-02-19T04:15:55;9.10;93.80
76211;DHT22;65003;49.518;11.280;2023-02-19T04:18:21;9.10;93.70
76211;DHT22;65003;49.518;11.280;2023-02-19T04:20:47;9.10;93.80
76211;DHT22;65003;49.518;11.280;2023-02-19T04:23:15;9.10;93.80
76211;DHT22;65003;49.518;11.280;2023-02-19T04:25:41;9.10;93.80
76211;DHT22;65003;49.518;11.280;2023-02-19T04:28:07;9.10;93.80
76211;DHT22;65003;49.518;11.280;2023-02-19T04:30:33;9.10;93.70
76211;DHT22;65003;49.518;11.280;2023-02-19T04:33:00;9.20;93.60
76211;DHT22;65003;49.518;11.280;2023-02-19T04:35:27;9.30;93.30
76211;DHT22;65003;49.518;11.280;2023-02-19T04:37:53;9.30;93.20
76211;DHT22;65003;49.518;11.280;2023-02-19T04:40:20;9.30;93.20
76211;DHT22;65003;49.518;11.280;2023-02-19T04:42:46;9.30;93.20
76211;DHT22;65003;49.518;11.280;2023-02-19T04:45:13;9.30;93.30
76211;DHT22;65003;49.518;11.280;2023-02-19T04:47:40;9.30;93.20
76211;DHT22;65003;49.518;11.280;2023-02-19T04:50:07;9.20;93.10
76211;DHT22;65003;49.518;11.280;2023-02-19T04:52:33;9.20;93.20
76211;DHT22;65003;49.518;11.280;2023-02-19T04:55:00;9.20;93.10
76211;DHT22;65003;49.518;11.280;2023-02-19T04:57:26;9.10;93.20
76211;DHT22;65003;49.518;11.280;2023-02-19T04:59:53;9.20;93.20
76211;DHT22;65003;49.518;11.280;2023-02-19T05:02:20;9.20;93.10
76211;DHT22;65003;49.518;11.280;2023-02-19T05:04:46;9.30;92.90
76211;DHT22;65003;49.518;11.280;2023-02-19T05:07:13;9.30;92.90
76211;DHT22;65003;49.518;11.280;2023-02-19T05:09:39;9.30;92.70
76211;DHT22;65003;49.518;11.280;2023-02-19T05:12:06;9.30;92.70
76211;DHT22;65003;49.518;11.280;2023-02-19T05:14:32;9.30;92.70
76211;DHT22;65003;49.518;11.280;2023-02-19T05:17:00;9.30;92.80
76211;DHT22;65003;49.518;11.280;2023-02-19T05:19:27;9.30;92.70
76211;DHT22;65003;49.518;11.280;2023-02-19T05:21:53;9.30;92.70
76211;DHT22;65003;49.518;11.280;2023-02-19T05:24:20;9.30;92.60
76211;DHT22;65003;49.518;11.280;2023-02-19T05:26:46;9.30;92.80
76211;DHT22;65003;49.518;11.280;2023-02-19T05:29:13;9.30;92.80
76211;DHT22;65003;49.518;11.280;2023-02-19T05:31:40;9.30;93.00
76211;DHT22;65003;49.518;11.280;2023-02-19T05:34:06;9.30;92.90
76211;DHT22;65003;49.518;11.280;2023-02-19T05:36:33;9.30;92.80
76211;DHT22;65003;49.518;11.280;2023-02-19T05:39:00;9.30;92.70
76211;DHT22;65003;49.518;11.280;2023-02-19T05:41:28;9.20;92.70
76211;DHT22;65003;49.518;11.280;2023-02-19T05:43:54;9.20;92.90
76211;DHT22;65003;49.518;11.280;2023-02-19T05:46:21;9.20;92.70
76211;DHT22;65003;49.518;11.280;2023-02-19T05:48:47;9.20;92.70
76211;DHT22;65003;49.518;11.280;2023-02-19T05:51:14;9.20;92.90
76211;DHT22;65003;49.518;11.280;2023-02-19T05:53:41;9.20;92.50
76211;DHT22;65003;49.518;11.280;2023-02-19T05:58:45;9.20;92.40
76211;DHT22;65003;49.518;11.280;2023-02-19T06:01:15;9.20;92.20
76211;DHT22;65003;49.518;11.280;2023-02-19T06:03:40;9.30;92.10
76211;DHT22;65003;49.518;11.280;2023-02-19T06:06:07;9.30;92.00
76211;DHT22;65003;49.518;11.280;2023-02-19T06:08:33;9.30;91.90
76211;DHT22;65003;49.518;11.280;2023-02-19T06:11:00;9.30;92.00
76211;DHT22;65003;49.518;11.280;2023-02-19T06:13:27;9.30;92.00
76211;DHT22;65003;49.518;11.280;2023-02-19T06:15:53;9.20;92.00
76211;DHT22;65003;49.518;11.280;2023-02-19T06:18:20;9.30;91.90
76211;DHT22;65003;49.518;11.280;2023-02-19T06:20:47;9.40;91.70
76211;DHT22;65003;49.518;11.280;2023-02-19T06:23:13;9.30;91.90
76211;DHT22;65003;49.518;11.280;2023-02-19T06:25:40;9.40;91.90
76211;DHT22;65003;49.518;11.280;2023-02-19T06:28:06;9.40;91.70
76211;DHT22;65003;49.518;11.280;2023-02-19T06:30:33;9.40;91.70
76211;DHT22;65003;49.518;11.280;2023-02-19T06:33:00;9.40;91.50
76211;DHT22;65003;49.518;11.280;2023-02-19T06:35:26;9.40;91.60
76211;DHT22;65003;49.518;11.280;2023-02-19T06:37:53;9.40;91.60
76211;DHT22;65003;49.518;11.280;2023-02-19T06:40:19;9.30;91.70
76211;DHT22;65003;49.518;11.280;2023-02-19T06:42:46;9.30;91.80
76211;DHT22;65003;49.518;11.280;2023-02-19T06:45:12;9.30;91.80
76211;DHT22;65003;49.518;11.280;2023-02-19T06:47:39;9.30;92.30
76211;DHT22;65003;49.518;11.280;2023-02-19T06:50:07;9.40;92.90
76211;DHT22;65003;49.518;11.280;2023-02-19T06:52:34;9.60;92.20
76211;DHT22;65003;49.518;11.280;2023-02-19T06:55:01;9.70;91.70
76211;DHT22;65003;49.518;11.280;2023-02-19T06:57:27;9.70;91.90
76211;DHT22;65003;49.518;11.280;2023-02-19T06:59:54;9.70;91.40
76211;DHT22;65003;49.518;11.280;2023-02-19T07:02:20;9.70;91.50
76211;DHT22;65003;49.518;11.280;2023-02-19T07:04:47;9.80;91.00
76211;DHT22;65003;49.518;11.280;2023-02-19T07:07:13;9.90;91.00
76211;DHT22;65003;49.518;11.280;2023-02-19T07:09:40;9.90;91.10
76211;DHT22;65003;49.518;11.280;2023-02-19T07:12:07;9.90;90.70
76211;DHT22;65003;49.518;11.280;2023-02-19T07:14:33;10.00;90.70
76211;DHT22;65003;49.518;11.280;2023-02-19T07:17:00;10.00;90.60
76211;DHT22;65003;49.518;11.280;2023-02-19T07:19:26;10.00;90.30
76211;DHT22;65003;49.518;11.280;2023-02-19T07:21:53;10.00;90.40
76211;DHT22;65003;49.518;11.280;2023-02-19T07:24:20;10.00;90.50
76211;DHT22;65003;49.518;11.280;2023-02-19T07:26:46;10.10;90.10
76211;DHT22;65003;49.518;11.280;2023-02-19T07:29:13;9.40;90.30
76211;DHT22;65003;49.518;11.280;2023-02-19T07:31:39;10.10;90.30
76211;DHT22;65003;49.518;11.280;2023-02-19T07:34:06;10.10;90.00
76211;DHT22;65003;49.518;11.280;2023-02-19T07:36:32;10.20;90.00
76211;DHT22;65003;49.518;11.280;2023-02-19T07:38:59;10.20;89.80
76211;DHT22;65003;49.518;11.280;2023-02-19T07:41:26;10.20;89.20
76211;DHT22;65003;49.518;11.280;2023-02-19T07:43:52;10.20;88.90
76211;DHT22;65003;49.518;11.280;2023-02-19T07:46:19;10.20;88.50
76211;DHT22;65003;49.518;11.280;2023-02-19T07:48:45;10.10;88.80
76211;DHT22;65003;49.518;11.280;2023-02-19T07:51:13;10.00;89.10
76211;DHT22;65003;49.518;11.280;2023-02-19T07:53:39;10.00;89.20
76211;DHT22;65003;49.518;11.280;2023-02-19T07:56:06;9.90;89.50
76211;DHT22;65003;49.518;11.280;2023-02-19T07:58:32;9.90;89.60
76211;DHT22;65003;49.518;11.280;2023-02-19T08:01:07;9.90;89.70
76211;DHT22;65003;49.518;11.280;2023-02-19T08:03:34;10.00;89.80
76211;DHT22;65003;49.518;11.280;2023-02-19T08:06:00;10.00;89.30
76211;DHT22;65003;49.518;11.280;2023-02-19T08:08:26;10.00;89.20
76211;DHT22;65003;49.518;11.280;2023-02-19T08:10:53;10.00;89.70
76211;DHT22;65003;49.518;11.280;2023-02-19T08:13:26;9.90;90.00
76211;DHT22;65003;49.518;11.280;2023-02-19T08:15:53;9.80;90.30
76211;DHT22;65003;49.518;11.280;2023-02-19T08:18:22;9.80;90.30
76211;DHT22;65003;49.518;11.280;2023-02-19T08:20:47;9.80;90.20
76211;DHT22;65003;49.518;11.280;2023-02-19T08:23:14;9.90;90.00
76211;DHT22;65003;49.518;11.280;2023-02-19T08:25:40;9.80;90.10
76211;DHT22;65003;49.518;11.280;2023-02-19T08:28:08;9.90;89.40
76211;DHT22;65003;49.518;11.280;2023-02-19T08:30:34;9.90;89.20
76211;DHT22;65003;49.518;11.280;2023-02-19T08:33:00;9.90;89.50
76211;DHT22;65003;49.518;11.280;2023-02-19T08:35:27;9.90;89.10
76211;DHT22;65003;49.518;11.280;2023-02-19T08:37:55;10.00;89.30
76211;DHT22;65003;49.518;11.280;2023-02-19T08:40:21;9.90;89.40
76211;DHT22;65003;49.518;11.280;2023-02-19T08:42:48;9.90;89.00
76211;DHT22;65003;49.518;11.280;2023-02-19T08:45:14;9.90;88.90
76211;DHT22;65003;49.518;11.280;2023-02-19T08:47:41;9.90;89.50
76211;DHT22;65003;49.518;11.280;2023-02-19T08:50:08;10.00;89.20
76211;DHT22;65003;49.518;11.280;2023-02-19T08:52:34;10.00;89.00
76211;DHT22;65003;49.518;11.280;2023-02-19T08:55:02;10.10;88.80
76211;DHT22;65003;49.518;11.280;2023-02-19T08:57:27;10.20;88.10
76211;DHT22;65003;49.518;11.280;2023-02-19T08:59:54;10.30;87.70
76211;DHT22;65003;49.518;11.280;2023-02-19T09:02:21;10.30;87.10
76211;DHT22;65003;49.518;11.280;2023-02-19T09:04:47;10.40;87.40
76211;DHT22;65003;49.518;11.280;2023-02-19T09:07:14;10.40;86.80
76211;DHT22;65003;49.518;11.280;2023-02-19T09:09:40;10.40;86.40
76211;DHT22;65003;49.518;11.280;2023-02-19T09:12:08;10.40;86.70
76211;DHT22;65003;49.518;11.280;2023-02-19T09:14:34;10.40;86.40
76211;DHT22;65003;49.518;11.280;2023-02-19T09:17:01;10.40;86.20
76211;DHT22;65003;49.518;11.280;2023-02-19T09:19:27;10.30;87.00
76211;DHT22;65003;49.518;11.280;2023-02-19T09:21:54;10.20;86.70
76211;DHT22;65003;49.518;11.280;2023-02-19T09:24:20;10.30;87.70
76211;DHT22;65003;49.518;11.280;2023-02-19T09:26:48;10.30;87.40
76211;DHT22;65003;49.518;11.280;2023-02-19T09:29:14;10.30;86.60
76211;DHT22;65003;49.518;11.280;2023-02-19T09:31:41;10.30;87.20
76211;DHT22;65003;49.518;11.280;2023-02-19T09:34:07;10.30;87.30
76211;DHT22;65003;49.518;11.280;2023-02-19T09:36:34;10.30;86.80
76211;DHT22;65003;49.518;11.280;2023-02-19T09:39:01;10.30;87.40
76211;DHT22;65003;49.518;11.280;2023-02-19T09:41:30;10.30;86.80
76211;DHT22;65003;49.518;11.280;2023-02-19T09:43:57;10.30;86.80
76211;DHT22;65003;49.518;11.280;2023-02-19T09:46:35;10.20;87.10
76211;DHT22;65003;49.518;11.280;2023-02-19T09:49:12;10.20;87.60
76211;DHT22;65003;49.518;11.280;2023-02-19T09:51:37;10.20;87.70
76211;DHT22;65003;49.518;11.280;2023-02-19T09:54:03;10.20;87.70
76211;DHT22;65003;49.518;11.280;2023-02-19T09:56:30;10.20;88.00
76211;DHT22;65003;49.518;11.280;2023-02-19T09:58:57;10.10;87.60
76211;DHT22;65003;49.518;11.280;2023-02-19T10:01:24;10.20;87.60
76211;DHT22;65003;49.518;11.280;2023-02-19T10:03:50;10.10;87.60
76211;DHT22;65003;49.518;11.280;2023-02-19T10:06:20;10.10;87.50
76211;DHT22;65003;49.518;11.280;2023-02-19T10:08:46;10.20;87.90
76211;DHT22;65003;49.518;11.280;2023-02-19T10:11:13;10.20;87.80
76211;DHT22;65003;49.518;11.280;2023-02-19T10:13:48;10.20;88.30
76211;DHT22;65003;49.518;11.280;2023-02-19T10:16:20;10.20;89.60
76211;DHT22;65003;49.518;11.280;2023-02-19T10:18:45;10.30;89.50
76211;DHT22;65003;49.518;11.280;2023-02-19T10:21:16;10.40;89.60
76211;DHT22;65003;49.518;11.280;2023-02-19T10:23:41;10.50;88.60
76211;DHT22;65003;49.518;11.280;2023-02-19T10:26:08;10.40;88.50
76211;DHT22;65003;49.518;11.280;2023-02-19T10:28:34;10.40;88.70
76211;DHT22;65003;49.518;11.280;2023-02-19T10:31:02;10.40;88.60
76211;DHT22;65003;49.518;11.280;2023-02-19T10:33:28;10.40;88.60
76211;DHT22;65003;49.518;11.280;2023-02-19T10:36:04;10.40;88.90
76211;DHT22;65003;49.518;11.280;2023-02-19T10:38:34;10.40;88.80
76211;DHT22;65003;49.518;11.280;2023-02-19T10:41:02;10.30;88.60
76211;DHT22;65003;49.518;11.280;2023-02-19T10:43:28;10.30;88.80
76211;DHT22;65003;49.518;11.280;2023-02-19T10:45:56;10.30;88.60
76211;DHT22;65003;49.518;11.280;2023-02-19T10:48:27;10.20;88.70
76211;DHT22;65003;49.518;11.280;2023-02-19T10:50:51;10.30;88.70
76211;DHT22;65003;49.518;11.280;2023-02-19T10:53:20;10.40;88.20
76211;DHT22;65003;49.518;11.280;2023-02-19T10:55:46;10.50;87.90
76211;DHT22;65003;49.518;11.280;2023-02-19T10:58:20;10.60;86.40
76211;DHT22;65003;49.518;11.280;2023-02-19T11:00:45;10.70;86.70
76211;DHT22;65003;49.518;11.280;2023-02-19T11:03:18;10.70;85.80
76211;DHT22;65003;49.518;11.280;2023-02-19T11:05:52;10.70;86.10
76211;DHT22;65003;49.518;11.280;2023-02-19T11:08:19;10.60;85.90
76211;DHT22;65003;49.518;11.280;2023-02-19T11:10:43;10.50;86.20
76211;DHT22;65003;49.518;11.280;2023-02-19T11:13:13;10.50;86.90
76211;DHT22;65003;49.518;11.280;2023-02-19T11:15:39;10.40;87.30
76211;DHT22;65003;49.518;11.280;2023-02-19T11:18:22;10.40;88.20
76211;DHT22;65003;49.518;11.280;2023-02-19T11:20:54;10.40;89.70
76211;DHT22;65003;49.518;11.280;2023-02-19T11:23:27;10.40;89.70
76211;DHT22;65003;49.518;11.280;2023-02-19T11:25:52;10.40;90.00
76211;DHT22;65003;49.518;11.280;2023-02-19T11:28:22;10.40;90.00
76211;DHT22;65003;49.518;11.280;2023-02-19T11:30:46;10.50;90.00
76211;DHT22;65003;49.518;11.280;2023-02-19T11:33:29;10.50;90.20
76211;DHT22;65003;49.518;11.280;2023-02-19T11:36:23;10.60;90.20
76211;DHT22;65003;49.518;11.280;2023-02-19T11:38:43;10.70;89.50
76211;DHT22;65003;49.518;11.280;2023-02-19T11:41:25;10.80;89.40
76211;DHT22;65003;49.518;11.280;2023-02-19T11:46:32;10.80;89.10
76211;DHT22;65003;49.518;11.280;2023-02-19T11:49:03;10.80;87.90
76211;DHT22;65003;49.518;11.280;2023-02-19T11:51:35;10.70;89.00
76211;DHT22;65003;49.518;11.280;2023-02-19T11:54:14;10.70;88.50
76211;DHT22;65003;49.518;11.280;2023-02-19T11:56:36;10.70;88.40
76211;DHT22;65003;49.518;11.280;2023-02-19T11:59:03;10.60;88.80
76211;DHT22;65003;49.518;11.280;2023-02-19T12:01:39;10.50;89.70
76211;DHT22;65003;49.518;11.280;2023-02-19T12:04:26;10.40;89.50
76211;DHT22;65003;49.518;11.280;2023-02-19T12:06:52;10.30;89.80
76211;DHT22;65003;49.518;11.280;2023-02-19T12:09:25;10.30;90.20
76211;DHT22;65003;49.518;11.280;2023-02-19T12:12:01;10.30;90.00
76211;DHT22;65003;49.518;11.280;2023-02-19T12:14:44;10.30;89.50
76211;DHT22;65003;49.518;11.280;2023-02-19T12:17:35;10.30;89.90
76211;DHT22;65003;49.518;11.280;2023-02-19T12:20:17;10.30;89.50
76211;DHT22;65003;49.518;11.280;2023-02-19T12:23:06;10.30;89.70
76211;DHT22;65003;49.518;11.280;2023-02-19T12:28:22;10.20;90.00
76211;DHT22;65003;49.518;11.280;2023-02-19T12:33:41;10.30;89.90
76211;DHT22;65003;49.518;11.280;2023-02-19T12:36:22;10.40;89.80
76211;DHT22;65003;49.518;11.280;2023-02-19T12:38:52;10.50;89.30
76211;DHT22;65003;49.518;11.280;2023-02-19T12:41:21;10.70;88.70
76211;DHT22;65003;49.518;11.280;2023-02-19T12:43:50;10.70;87.90
76211;DHT22;65003;49.518;11.280;2023-02-19T12:46:15;10.70;88.90
76211;DHT22;65003;49.518;11.280;2023-02-19T12:48:44;10.60;88.30
76211;DHT22;65003;49.518;11.280;2023-02-19T12:51:20;10.70;89.70
76211;DHT22;65003;49.518;11.280;2023-02-19T12:53:54;10.80;90.10
76211;DHT22;65003;49.518;11.280;2023-02-19T12:56:29;10.70;89.70
76211;DHT22;65003;49.518;11.280;2023-02-19T12:58:57;10.80;90.40
76211;DHT22;65003;49.518;11.280;2023-02-19T13:01:25;10.60;90.60
76211;DHT22;65003;49.518;11.280;2023-02-19T13:03:57;10.60;90.60
76211;DHT22;65003;49.518;11.280;2023-02-19T13:06:38;10.50;91.00
76211;DHT22;65003;49.518;11.280;2023-02-19T13:09:05;10.40;91.20
76211;DHT22;65003;49.518;11.280;2023-02-19T13:11:34;10.50;90.50
76211;DHT22;65003;49.518;11.280;2023-02-19T13:14:00;10.70;90.60
76211;DHT22;65003;49.518;11.280;2023-02-19T13:16:25;10.80;90.50
76211;DHT22;65003;49.518;11.280;2023-02-19T13:18:55;10.80;90.00
76211;DHT22;65003;49.518;11.280;2023-02-19T13:21:21;10.70;90.00
76211;DHT22;65003;49.518;11.280;2023-02-19T13:23:53;10.60;90.10
76211;DHT22;65003;49.518;11.280;2023-02-19T13:29:15;10.50;90.50
76211;DHT22;65003;49.518;11.280;2023-02-19T13:34:41;10.60;90.20
76211;DHT22;65003;49.518;11.280;2023-02-19T13:37:01;10.80;90.60
76211;DHT22;65003;49.518;11.280;2023-02-19T13:39:28;11.00;89.40
76211;DHT22;65003;49.518;11.280;2023-02-19T13:41:55;11.20;89.30
76211;DHT22;65003;49.518;11.280;2023-02-19T13:44:23;11.50;86.60
76211;DHT22;65003;49.518;11.280;2023-02-19T13:46:48;11.60;85.70
76211;DHT22;65003;49.518;11.280;2023-02-19T13:49:36;11.70;85.60
76211;DHT22;65003;49.518;11.280;2023-02-19T13:51:52;11.60;84.90
76211;DHT22;65003;49.518;11.280;2023-02-19T13:54:21;11.60;84.20
76211;DHT22;65003;49.518;11.280;2023-02-19T13:56:46;11.60;84.70
76211;DHT22;65003;49.518;11.280;2023-02-19T14:02:07;11.40;83.50
76211;DHT22;65003;49.518;11.280;2023-02-19T14:04:54;11.20;84.80
76211;DHT22;65003;49.518;11.280;2023-02-19T14:07:46;11.00;84.20
76211;DHT22;65003;49.518;11.280;2023-02-19T14:10:04;10.80;84.70
76211;DHT22;65003;49.518;11.280;2023-02-19T14:12:32;10.60;85.40
76211;DHT22;65003;49.518;11.280;2023-02-19T14:15:36;10.70;86.10
76211;DHT22;65003;49.518;11.280;2023-02-19T14:17:26;10.70;85.40
76211;DHT22;65003;49.518;11.280;2023-02-19T14:19:55;10.70;85.70
76211;DHT22;65003;49.518;11.280;2023-02-19T14:24:59;10.70;84.60
76211;DHT22;65003;49.518;11.280;2023-02-19T14:27:25;10.80;84.70
76211;DHT22;65003;49.518;11.280;2023-02-19T14:29:52;10.80;84.80
76211;DHT22;65003;49.518;11.280;2023-02-19T14:32:18;10.80;84.40
76211;DHT22;65003;49.518;11.280;2023-02-19T14:34:45;10.80;84.50
76211;DHT22;65003;49.518;11.280;2023-02-19T14:37:16;10.60;84.20
76211;DHT22;65003;49.518;11.280;2023-02-19T14:39:42;10.60;84.20
76211;DHT22;65003;49.518;11.280;2023-02-19T14:42:26;10.60;84.90
76211;DHT22;65003;49.518;11.280;2023-02-19T14:44:54;10.60;84.90
76211;DHT22;65003;49.518;11.280;2023-02-19T14:47:21;10.50;84.60
76211;DHT22;65003;49.518;11.280;2023-02-19T14:49:48;10.50;84.30
76211;DHT22;65003;49.518;11.280;2023-02-19T14:52:21;10.50;84.10
76211;DHT22;65003;49.518;11.280;2023-02-19T14:54:51;10.40;84.10
76211;DHT22;65003;49.518;11.280;2023-02-19T14:57:18;10.50;83.90
76211;DHT22;65003;49.518;11.280;2023-02-19T14:59:53;10.50;84.80
76211;DHT22;65003;49.518;11.280;2023-02-19T15:02:19;10.40;84.30
76211;DHT22;65003;49.518;11.280;2023-02-19T15:04:46;10.40;84.50
76211;DHT22;65003;49.518;11.280;2023-02-19T15:07:14;10.30;84.70
76211;DHT22;65003;49.518;11.280;2023-02-19T15:09:42;10.30;84.30
76211;DHT22;65003;49.518;11.280;2023-02-19T15:12:12;10.30;84.50
76211;DHT22;65003;49.518;11.280;2023-02-19T15:14:33;10.40;84.20
76211;DHT22;65003;49.518;11.280;2023-02-19T15:17:01;10.30;84.30
76211;DHT22;65003;49.518;11.280;2023-02-19T15:19:27;10.30;84.50
76211;DHT22;65003;49.518;11.280;2023-02-19T15:21:53;10.30;84.70
76211;DHT22;65003;49.518;11.280;2023-02-19T15:24:20;10.30;84.90
76211;DHT22;65003;49.518;11.280;2023-02-19T15:26:50;10.30;85.20
76211;DHT22;65003;49.518;11.280;2023-02-19T15:29:17;10.30;85.50
76211;DHT22;65003;49.518;11.280;2023-02-19T15:31:50;10.20;85.20
76211;DHT22;65003;49.518;11.280;2023-02-19T15:34:17;10.30;85.10
76211;DHT22;65003;49.518;11.280;2023-02-19T15:36:42;10.30;85.20
76211;DHT22;65003;49.518;11.280;2023-02-19T15:39:15;10.30;85.20
76211;DHT22;65003;49.518;11.280;2023-02-19T15:41:38;10.30;84.90
76211;DHT22;65003;49.518;11.280;2023-02-19T15:44:16;10.30;84.70
76211;DHT22;65003;49.518;11.280;2023-02-19T15:46:37;10.30;84.30
76211;DHT22;65003;49.518;11.280;2023-02-19T15:49:07;10.20;83.50
76211;DHT22;65003;49.518;11.280;2023-02-19T15:51:36;10.20;84.00
76211;DHT22;65003;49.518;11.280;2023-02-19T15:54:03;10.10;84.40
76211;DHT22;65003;49.518;11.280;2023-02-19T15:56:30;10.20;85.00
76211;DHT22;65003;49.518;11.280;2023-02-19T15:58:58;10.20;84.20
76211;DHT22;65003;49.518;11.280;2023-02-19T16:01:25;10.20;84.10
76211;DHT22;65003;49.518;11.280;2023-02-19T16:03:50;10.10;84.30